sensor_id;sensor_type;location;lat;lon;timestamp;temperature;humidity
8711;DHT22;4392;47.400;8.062;2022-10-13T00:00:31;15.40;99.90
8711;DHT22;4392;47.400;8.062;2022-10-13T00:03:01;15.40;99.90
8711;DHT22;4392;47.400;8.062;2022-10-13T00:05:27;15.40;99.90
8711;DHT22;4392;47.400;8.062;2022-10-13T00:07:54;15.40;99.90
8711;DHT22;4392;47.400;8.062;2022-10-13T00:10:20;15.40;99.90
8711;DHT22;4392;47.400;8.062;2022-10-13T00:12:46;15.40;99.90
8711;DHT22;4392;47.400;8.062;2022-10-13T00:15:14;15.40;99.90
8711;DHT22;4392;47.400;8.062;2022-10-13T00:17:40;15.40;99.90
8711;DHT22;4392;47.400;8.062;2022-10-13T00:20:07;15.40;99.90
8711;DHT22;4392;47.400;8.062;2022-10-13T00:22:33;15.40;99.90
8711;DHT22;4392;47.400;8.062;2022-10-13T00:24:59;15.40;99.90
8711;DHT22;4392;47.400;8.062;2022-10-13T00:27:27;15.40;99.90
8711;DHT22;4392;47.400;8.062;2022-10-13T00:29:54;15.30;99.90
8711;DHT22;4392;47.400;8.062;2022-10-13T00:32:20;15.30;99.90
8711;DHT22;4392;47.400;8.062;2022-10-13T00:34:48;15.40;99.90
8711;DHT22;4392;47.400;8.062;2022-10-13T00:37:16;15.40;99.90
8711;DHT22;4392;47.400;8.062;2022-10-13T00:39:42;15.30;99.90
8711;DHT22;4392;47.400;8.062;2022-10-13T00:42:12;15.30;99.90
8711;DHT22;4392;47.400;8.062;2022-10-13T00:45:09;15.20;99.90
8711;DHT22;4392;47.400;8.062;2022-10-13T00:47:44;15.30;99.90
8711;DHT22;4392;47.400;8.062;2022-10-13T00:50:24;15.20;99.90
8711;DHT22;4392;47.400;8.062;2022-10-13T00:52:53;15.20;99.90
8711;DHT22;4392;47.400;8.062;2022-10-13T00:55:21;15.20;99.90
8711;DHT22;4392;47.400;8.062;2022-10-13T00:57:50;15.20;99.90
8711;DHT22;4392;47.400;8.062;2022-10-13T01:00:23;15.20;99.90
8711;DHT22;4392;47.400;8.062;2022-10-13T01:02:52;15.20;99.90
8711;DHT22;4392;47.400;8.062;2022-10-13T01:05:19;15.20;99.90
8711;DHT22;4392;47.400;8.062;2022-10-13T01:07:47;15.20;99.90
8711;DHT22;4392;47.400;8.062;2022-10-13T01:10:16;15.20;99.90
8711;DHT22;4392;47.400;8.062;2022-10-13T01:13:02;15.20;99.90
8711;DHT22;4392;47.400;8.062;2022-10-13T01:15:47;15.20;99.90
8711;DHT22;4392;47.400;8.062;2022-10-13T01:21:16;15.20;99.90
8711;DHT22;4392;47.400;8.062;2022-10-13T01:32:47;15.20;99.90
8711;DHT22;4392;47.400;8.062;2022-10-13T01:35:36;16.10;99.90
8711;DHT22;4392;47.400;8.062;2022-10-13T01:43:24;15.50;99.90
8711;DHT22;4392;47.400;8.062;2022-10-13T01:46:02;15.50;99.90
8711;DHT22;4392;47.400;8.062;2022-10-13T01:48:33;15.40;99.90
8711;DHT22;4392;47.400;8.062;2022-10-13T01:51:17;15.50;99.90
8711;DHT22;4392;47.400;8.062;2022-10-13T01:53:45;16.30;99.90
8711;DHT22;4392;47.400;8.062;2022-10-13T01:56:12;16.70;99.90
8711;DHT22;4392;47.400;8.062;2022-10-13T01:58:37;16.90;99.90
8711;DHT22;4392;47.400;8.062;2022-10-13T02:01:13;16.90;99.90
8711;DHT22;4392;47.400;8.062;2022-10-13T02:09:45;17.20;99.90
8711;DHT22;4392;47.400;8.062;2022-10-13T02:12:27;17.30;99.90
8711;DHT22;4392;47.400;8.062;2022-10-13T02:14:56;17.40;99.90
8711;DHT22;4392;47.400;8.062;2022-10-13T02:17:23;17.40;99.90
8711;DHT22;4392;47.400;8.062;2022-10-13T02:19:51;17.50;99.90
8711;DHT22;4392;47.400;8.062;2022-10-13T02:22:18;17.60;99.90
8711;DHT22;4392;47.400;8.062;2022-10-13T02:24:45;17.60;99.90
8711;DHT22;4392;47.400;8.062;2022-10-13T02:27:11;17.60;99.90
8711;DHT22;4392;47.400;8.062;2022-10-13T02:29:56;17.60;99.90
8711;DHT22;4392;47.400;8.062;2022-10-13T02:32:22;17.60;99.90
8711;DHT22;4392;47.400;8.062;2022-10-13T02:34:51;17.60;99.90
8711;DHT22;4392;47.400;8.062;2022-10-13T02:37:17;17.70;99.90
8711;DHT22;4392;47.400;8.062;2022-10-13T02:39:43;17.70;99.90
8711;DHT22;4392;47.400;8.062;2022-10-13T02:42:09;17.70;99.90
8711;DHT22;4392;47.400;8.062;2022-10-13T02:44:35;17.70;99.90
8711;DHT22;4392;47.400;8.062;2022-10-13T02:47:05;17.70;99.90
8711;DHT22;4392;47.400;8.062;2022-10-13T02:49:31;17.70;99.90
8711;DHT22;4392;47.400;8.062;2022-10-13T02:51:57;17.80;99.90
8711;DHT22;4392;47.400;8.062;2022-10-13T02:54:22;17.80;99.90
8711;DHT22;4392;47.400;8.062;2022-10-13T02:56:51;17.80;99.90
8711;DHT22;4392;47.400;8.062;2022-10-13T02:59:16;17.80;99.90
8711;DHT22;4392;47.400;8.062;2022-10-13T03:01:42;17.80;99.90
8711;DHT22;4392;47.400;8.062;2022-10-13T03:04:09;17.80;99.90
8711;DHT22;4392;47.400;8.062;2022-10-13T03:06:35;17.80;99.90
8711;DHT22;4392;47.400;8.062;2022-10-13T03:09:02;17.80;99.90
8711;DHT22;4392;47.400;8.062;2022-10-13T03:11:28;17.80;99.90
8711;DHT22;4392;47.400;8.062;2022-10-13T03:13:55;17.90;99.90
8711;DHT22;4392;47.400;8.062;2022-10-13T03:16:21;17.90;99.90
8711;DHT22;4392;47.400;8.062;2022-10-13T03:18:46;17.90;99.90
8711;DHT22;4392;47.400;8.062;2022-10-13T03:21:13;17.90;99.90
8711;DHT22;4392;47.400;8.062;2022-10-13T03:23:39;17.90;99.90
8711;DHT22;4392;47.400;8.062;2022-10-13T03:26:07;17.90;99.90
8711;DHT22;4392;47.400;8.062;2022-10-13T03:28:36;17.90;99.90
8711;DHT22;4392;47.400;8.062;2022-10-13T03:31:07;18.00;99.90
8711;DHT22;4392;47.400;8.062;2022-10-13T03:33:34;18.00;99.90
8711;DHT22;4392;47.400;8.062;2022-10-13T03:36:01;18.00;99.90
8711;DHT22;4392;47.400;8.062;2022-10-13T03:38:28;18.00;99.90
8711;DHT22;4392;47.400;8.062;2022-10-13T03:40:54;18.00;99.90
8711;DHT22;4392;47.400;8.062;2022-10-13T03:43:22;18.00;99.90
8711;DHT22;4392;47.400;8.062;2022-10-13T03:45:58;18.00;99.90
8711;DHT22;4392;47.400;8.062;2022-10-13T03:48:30;18.00;99.90
8711;DHT22;4392;47.400;8.062;2022-10-13T03:50:56;17.90;99.90
8711;DHT22;4392;47.400;8.062;2022-10-13T03:53:25;17.70;99.90
8711;DHT22;4392;47.400;8.062;2022-10-13T03:55:53;17.60;99.90
8711;DHT22;4392;47.400;8.062;2022-10-13T03:58:20;17.50;99.90
8711;DHT22;4392;47.400;8.062;2022-10-13T04:00:46;17.50;99.90
8711;DHT22;4392;47.400;8.062;2022-10-13T04:03:12;17.40;99.90
8711;DHT22;4392;47.400;8.062;2022-10-13T04:05:38;17.40;99.90
8711;DHT22;4392;47.400;8.062;2022-10-13T04:08:04;17.10;99.90
8711;DHT22;4392;47.400;8.062;2022-10-13T04:10:30;16.70;99.90
8711;DHT22;4392;47.400;8.062;2022-10-13T04:12:56;16.50;99.90
8711;DHT22;4392;47.400;8.062;2022-10-13T04:15:22;16.40;99.90
8711;DHT22;4392;47.400;8.062;2022-10-13T04:17:48;16.30;99.90
8711;DHT22;4392;47.400;8.062;2022-10-13T04:20:13;16.20;99.90
8711;DHT22;4392;47.400;8.062;2022-10-13T04:22:39;16.20;99.90
8711;DHT22;4392;47.400;8.062;2022-10-13T04:25:06;16.10;99.90
8711;DHT22;4392;47.400;8.062;2022-10-13T04:27:32;16.00;99.90
8711;DHT22;4392;47.400;8.062;2022-10-13T04:29:58;16.00;99.90
8711;DHT22;4392;47.400;8.062;2022-10-13T04:32:23;15.90;99.90
8711;DHT22;4392;47.400;8.062;2022-10-13T04:34:49;15.90;99.90
8711;DHT22;4392;47.400;8.062;2022-10-13T04:37:15;15.90;99.90
8711;DHT22;4392;47.400;8.062;2022-10-13T04:39:41;15.90;99.90
8711;DHT22;4392;47.400;8.062;2022-10-13T04:42:07;15.90;99.90
8711;DHT22;4392;47.400;8.062;2022-10-13T04:44:32;15.90;99.90
8711;DHT22;4392;47.400;8.062;2022-10-13T04:46:58;15.90;99.90
8711;DHT22;4392;47.400;8.062;2022-10-13T04:49:26;15.90;99.90
8711;DHT22;4392;47.400;8.062;2022-10-13T04:51:51;15.80;99.90
8711;DHT22;4392;47.400;8.062;2022-10-13T04:54:17;15.80;99.90
8711;DHT22;4392;47.400;8.062;2022-10-13T04:56:44;15.80;99.90
8711;DHT22;4392;47.400;8.062;2022-10-13T04:59:11;15.80;99.90
8711;DHT22;4392;47.400;8.062;2022-10-13T05:01:37;15.80;99.90
8711;DHT22;4392;47.400;8.062;2022-10-13T05:04:04;15.80;99.90
8711;DHT22;4392;47.400;8.062;2022-10-13T05:06:34;15.70;99.90
8711;DHT22;4392;47.400;8.062;2022-10-13T05:09:01;15.70;99.90
8711;DHT22;4392;47.400;8.062;2022-10-13T05:11:30;15.80;99.90
8711;DHT22;4392;47.400;8.062;2022-10-13T05:13:57;15.80;99.90
8711;DHT22;4392;47.400;8.062;2022-10-13T05:16:23;15.80;99.90
8711;DHT22;4392;47.400;8.062;2022-10-13T05:18:54;15.70;99.90
8711;DHT22;4392;47.400;8.062;2022-10-13T05:21:25;15.70;99.90
8711;DHT22;4392;47.400;8.062;2022-10-13T05:23:52;15.60;99.90
8711;DHT22;4392;47.400;8.062;2022-10-13T05:26:21;15.60;99.90
8711;DHT22;4392;47.400;8.062;2022-10-13T05:28:47;15.60;99.90
8711;DHT22;4392;47.400;8.062;2022-10-13T05:31:15;15.60;99.90
8711;DHT22;4392;47.400;8.062;2022-10-13T05:33:45;15.60;99.90
8711;DHT22;4392;47.400;8.062;2022-10-13T05:36:19;15.50;99.90
8711;DHT22;4392;47.400;8.062;2022-10-13T05:38:52;15.60;99.90
8711;DHT22;4392;47.400;8.062;2022-10-13T05:41:19;15.60;99.90
8711;DHT22;4392;47.400;8.062;2022-10-13T05:43:45;15.50;99.90
8711;DHT22;4392;47.400;8.062;2022-10-13T05:46:11;15.40;99.90
8711;DHT22;4392;47.400;8.062;2022-10-13T05:48:37;15.50;99.90
8711;DHT22;4392;47.400;8.062;2022-10-13T05:51:08;15.50;99.90
8711;DHT22;4392;47.400;8.062;2022-10-13T05:53:37;15.40;99.90
8711;DHT22;4392;47.400;8.062;2022-10-13T05:56:11;15.40;99.90
8711;DHT22;4392;47.400;8.062;2022-10-13T05:58:46;15.40;99.90
8711;DHT22;4392;47.400;8.062;2022-10-13T06:01:16;15.40;99.90
8711;DHT22;4392;47.400;8.062;2022-10-13T06:03:44;15.40;99.90
8711;DHT22;4392;47.400;8.062;2022-10-13T06:06:10;15.40;99.90
8711;DHT22;4392;47.400;8.062;2022-10-13T06:08:37;15.40;99.90
8711;DHT22;4392;47.400;8.062;2022-10-13T06:11:03;15.50;99.90
8711;DHT22;4392;47.400;8.062;2022-10-13T06:13:30;15.60;99.90
8711;DHT22;4392;47.400;8.062;2022-10-13T06:15:58;15.60;99.90
8711;DHT22;4392;47.400;8.062;2022-10-13T06:18:24;15.60;99.90
8711;DHT22;4392;47.400;8.062;2022-10-13T06:20:52;15.60;99.90
8711;DHT22;4392;47.400;8.062;2022-10-13T06:23:17;15.50;99.90
8711;DHT22;4392;47.400;8.062;2022-10-13T06:25:50;15.60;99.90
8711;DHT22;4392;47.400;8.062;2022-10-13T06:28:17;15.60;99.90
8711;DHT22;4392;47.400;8.062;2022-10-13T06:30:47;15.60;99.90
8711;DHT22;4392;47.400;8.062;2022-10-13T06:33:19;15.70;99.90
8711;DHT22;4392;47.400;8.062;2022-10-13T06:35:45;15.60;99.90
8711;DHT22;4392;47.400;8.062;2022-10-13T06:38:13;15.60;99.90
8711;DHT22;4392;47.400;8.062;2022-10-13T06:40:39;15.50;99.90
8711;DHT22;4392;47.400;8.062;2022-10-13T06:43:08;15.50;99.90
8711;DHT22;4392;47.400;8.062;2022-10-13T06:45:34;15.50;99.90
8711;DHT22;4392;47.400;8.062;2022-10-13T06:47:59;15.60;99.90
8711;DHT22;4392;47.400;8.062;2022-10-13T06:50:28;15.60;99.90
8711;DHT22;4392;47.400;8.062;2022-10-13T06:52:57;15.50;99.90
8711;DHT22;4392;47.400;8.062;2022-10-13T06:55:23;15.50;99.90
8711;DHT22;4392;47.400;8.062;2022-10-13T06:57:48;15.50;99.90
8711;DHT22;4392;47.400;8.062;2022-10-13T07:00:14;15.60;99.90
8711;DHT22;4392;47.400;8.062;2022-10-13T07:02:40;15.60;99.90
8711;DHT22;4392;47.400;8.062;2022-10-13T07:05:06;15.60;99.90
8711;DHT22;4392;47.400;8.062;2022-10-13T07:07:32;15.60;99.90
8711;DHT22;4392;47.400;8.062;2022-10-13T07:09:57;15.60;99.90
8711;DHT22;4392;47.400;8.062;2022-10-13T07:12:23;15.50;99.90
8711;DHT22;4392;47.400;8.062;2022-10-13T07:14:49;15.50;99.90
8711;DHT22;4392;47.400;8.062;2022-10-13T07:17:15;15.60;99.90
8711;DHT22;4392;47.400;8.062;2022-10-13T07:19:40;15.60;99.90
8711;DHT22;4392;47.400;8.062;2022-10-13T07:22:06;15.60;99.90
8711;DHT22;4392;47.400;8.062;2022-10-13T07:24:32;15.50;99.90
8711;DHT22;4392;47.400;8.062;2022-10-13T07:27:00;15.60;99.90
8711;DHT22;4392;47.400;8.062;2022-10-13T07:29:26;15.60;99.90
8711;DHT22;4392;47.400;8.062;2022-10-13T07:31:52;15.60;99.90
8711;DHT22;4392;47.400;8.062;2022-10-13T07:34:17;15.60;99.90
8711;DHT22;4392;47.400;8.062;2022-10-13T07:36:43;15.50;99.90
8711;DHT22;4392;47.400;8.062;2022-10-13T07:39:09;15.50;99.90
8711;DHT22;4392;47.400;8.062;2022-10-13T07:41:35;15.60;99.90
8711;DHT22;4392;47.400;8.062;2022-10-13T07:44:02;15.40;99.90
8711;DHT22;4392;47.400;8.062;2022-10-13T07:46:27;15.50;99.90
8711;DHT22;4392;47.400;8.062;2022-10-13T07:48:54;15.50;99.90
8711;DHT22;4392;47.400;8.062;2022-10-13T07:51:23;15.60;99.90
8711;DHT22;4392;47.400;8.062;2022-10-13T07:53:50;15.70;99.90
8711;DHT22;4392;47.400;8.062;2022-10-13T07:56:19;15.70;99.90
8711;DHT22;4392;47.400;8.062;2022-10-13T07:58:46;15.70;99.90
8711;DHT22;4392;47.400;8.062;2022-10-13T08:01:13;15.70;99.90
8711;DHT22;4392;47.400;8.062;2022-10-13T08:03:39;15.70;99.90
8711;DHT22;4392;47.400;8.062;2022-10-13T08:06:06;15.70;99.90
8711;DHT22;4392;47.400;8.062;2022-10-13T08:08:32;15.70;99.90
8711;DHT22;4392;47.400;8.062;2022-10-13T08:11:06;15.70;99.90
8711;DHT22;4392;47.400;8.062;2022-10-13T08:13:33;15.80;99.90
8711;DHT22;4392;47.400;8.062;2022-10-13T08:16:00;15.80;99.90
8711;DHT22;4392;47.400;8.062;2022-10-13T08:18:26;15.80;99.90
8711;DHT22;4392;47.400;8.062;2022-10-13T08:20:52;15.90;99.90
8711;DHT22;4392;47.400;8.062;2022-10-13T08:23:17;15.80;99.90
8711;DHT22;4392;47.400;8.062;2022-10-13T08:25:45;15.80;99.90
8711;DHT22;4392;47.400;8.062;2022-10-13T08:28:22;15.80;99.90
8711;DHT22;4392;47.400;8.062;2022-10-13T08:30:48;15.90;99.90
8711;DHT22;4392;47.400;8.062;2022-10-13T08:33:18;15.90;99.90
8711;DHT22;4392;47.400;8.062;2022-10-13T08:35:45;16.00;99.90
8711;DHT22;4392;47.400;8.062;2022-10-13T08:38:11;15.90;99.90
8711;DHT22;4392;47.400;8.062;2022-10-13T08:40:39;16.00;99.90
8711;DHT22;4392;47.400;8.062;2022-10-13T08:43:12;16.00;99.90
8711;DHT22;4392;47.400;8.062;2022-10-13T08:45:42;16.00;99.90
8711;DHT22;4392;47.400;8.062;2022-10-13T08:50:53;16.10;99.90
8711;DHT22;4392;47.400;8.062;2022-10-13T08:53:29;16.00;99.90
8711;DHT22;4392;47.400;8.062;2022-10-13T08:58:29;16.00;99.90
8711;DHT22;4392;47.400;8.062;2022-10-13T09:06:47;16.10;99.90
8711;DHT22;4392;47.400;8.062;2022-10-13T09:09:16;16.10;99.90
8711;DHT22;4392;47.400;8.062;2022-10-13T09:11:44;16.10;99.90
8711;DHT22;4392;47.400;8.062;2022-10-13T09:14:18;16.20;99.90
8711;DHT22;4392;47.400;8.062;2022-10-13T09:16:47;16.20;99.90
8711;DHT22;4392;47.400;8.062;2022-10-13T09:19:29;16.20;99.90
8711;DHT22;4392;47.400;8.062;2022-10-13T09:22:23;16.20;99.90
8711;DHT22;4392;47.400;8.062;2022-10-13T09:25:18;16.20;99.90
8711;DHT22;4392;47.400;8.062;2022-10-13T09:30:42;16.20;99.90
8711;DHT22;4392;47.400;8.062;2022-10-13T09:35:44;16.10;99.90
8711;DHT22;4392;47.400;8.062;2022-10-13T09:38:22;16.20;99.90
8711;DHT22;4392;47.400;8.062;2022-10-13T09:41:16;16.20;99.90
8711;DHT22;4392;47.400;8.062;2022-10-13T09:49:05;16.80;99.90
8711;DHT22;4392;47.400;8.062;2022-10-13T09:51:43;16.80;99.90
8711;DHT22;4392;47.400;8.062;2022-10-13T09:59:52;16.80;99.90
8711;DHT22;4392;47.400;8.062;2022-10-13T10:02:23;16.80;99.90
8711;DHT22;4392;47.400;8.062;2022-10-13T10:04:53;16.80;99.90
8711;DHT22;4392;47.400;8.062;2022-10-13T10:07:24;16.90;99.90
8711;DHT22;4392;47.400;8.062;2022-10-13T10:10:38;17.00;99.90
8711;DHT22;4392;47.400;8.062;2022-10-13T10:12:40;17.00;99.90
8711;DHT22;4392;47.400;8.062;2022-10-13T10:15:20;17.00;99.90
8711;DHT22;4392;47.400;8.062;2022-10-13T10:17:58;17.00;99.90
8711;DHT22;4392;47.400;8.062;2022-10-13T10:20:43;16.80;99.90
8711;DHT22;4392;47.400;8.062;2022-10-13T10:23:45;16.90;99.90
8711;DHT22;4392;47.400;8.062;2022-10-13T10:26:28;17.00;99.90
8711;DHT22;4392;47.400;8.062;2022-10-13T10:39:30;17.00;99.90
8711;DHT22;4392;47.400;8.062;2022-10-13T10:42:05;17.10;99.90
8711;DHT22;4392;47.400;8.062;2022-10-13T10:44:39;17.10;99.90
8711;DHT22;4392;47.400;8.062;2022-10-13T10:47:22;17.20;99.90
8711;DHT22;4392;47.400;8.062;2022-10-13T10:49:53;17.20;99.90
8711;DHT22;4392;47.400;8.062;2022-10-13T10:52:29;17.20;99.90
8711;DHT22;4392;47.400;8.062;2022-10-13T10:58:39;17.30;99.90
8711;DHT22;4392;47.400;8.062;2022-10-13T11:00:57;17.40;99.90
8711;DHT22;4392;47.400;8.062;2022-10-13T11:08:47;17.60;99.90
8711;DHT22;4392;47.400;8.062;2022-10-13T11:16:57;17.70;99.90
8711;DHT22;4392;47.400;8.062;2022-10-13T11:19:33;17.70;99.90
8711;DHT22;4392;47.400;8.062;2022-10-13T11:35:16;17.90;99.90
8711;DHT22;4392;47.400;8.062;2022-10-13T11:49:15;17.90;99.90
8711;DHT22;4392;47.400;8.062;2022-10-13T11:54:49;18.10;99.90
8711;DHT22;4392;47.400;8.062;2022-10-13T11:57:24;18.20;99.90
8711;DHT22;4392;47.400;8.062;2022-10-13T11:59:53;18.20;99.90
8711;DHT22;4392;47.400;8.062;2022-10-13T12:02:22;18.20;99.90
8711;DHT22;4392;47.400;8.062;2022-10-13T12:07:33;18.10;99.90
8711;DHT22;4392;47.400;8.062;2022-10-13T12:10:03;18.00;99.90
8711;DHT22;4392;47.400;8.062;2022-10-13T12:12:30;18.00;99.90
8711;DHT22;4392;47.400;8.062;2022-10-13T12:14:58;18.00;99.90
8711;DHT22;4392;47.400;8.062;2022-10-13T12:17:32;18.00;99.90
8711;DHT22;4392;47.400;8.062;2022-10-13T12:20:20;18.10;99.90
8711;DHT22;4392;47.400;8.062;2022-10-13T12:22:47;18.00;99.90
8711;DHT22;4392;47.400;8.062;2022-10-13T12:25:18;18.00;99.90
8711;DHT22;4392;47.400;8.062;2022-10-13T12:27:52;18.00;99.90
8711;DHT22;4392;47.400;8.062;2022-10-13T12:30:24;17.90;99.90
8711;DHT22;4392;47.400;8.062;2022-10-13T12:32:53;17.90;99.90
8711;DHT22;4392;47.400;8.062;2022-10-13T12:37:48;17.90;99.90
8711;DHT22;4392;47.400;8.062;2022-10-13T12:40:16;18.00;99.90
8711;DHT22;4392;47.400;8.062;2022-10-13T12:42:43;18.20;99.90
8711;DHT22;4392;47.400;8.062;2022-10-13T12:45:18;18.30;99.90
8711;DHT22;4392;47.400;8.062;2022-10-13T12:47:46;18.40;99.90
8711;DHT22;4392;47.400;8.062;2022-10-13T12:53:15;18.50;99.90
8711;DHT22;4392;47.400;8.062;2022-10-13T12:58:22;18.60;99.90
8711;DHT22;4392;47.400;8.062;2022-10-13T13:03:35;18.60;99.90
8711;DHT22;4392;47.400;8.062;2022-10-13T13:06:19;18.60;99.90
8711;DHT22;4392;47.400;8.062;2022-10-13T13:08:47;18.60;99.90
8711;DHT22;4392;47.400;8.062;2022-10-13T13:11:35;18.50;99.90
8711;DHT22;4392;47.400;8.062;2022-10-13T13:19:48;18.10;99.90
8711;DHT22;4392;47.400;8.062;2022-10-13T13:22:15;18.10;99.90
8711;DHT22;4392;47.400;8.062;2022-10-13T13:24:41;18.20;99.90
8711;DHT22;4392;47.400;8.062;2022-10-13T13:27:26;18.20;99.90
8711;DHT22;4392;47.400;8.062;2022-10-13T13:29:55;18.20;99.90
8711;DHT22;4392;47.400;8.062;2022-10-13T13:32:24;18.20;99.90
8711;DHT22;4392;47.400;8.062;2022-10-13T13:34:51;18.20;99.90
8711;DHT22;4392;47.400;8.062;2022-10-13T13:37:24;18.30;99.90
8711;DHT22;4392;47.400;8.062;2022-10-13T13:39:51;18.10;99.90
8711;DHT22;4392;47.400;8.062;2022-10-13T13:42:17;18.10;99.90
8711;DHT22;4392;47.400;8.062;2022-10-13T13:44:44;18.30;99.90
8711;DHT22;4392;47.400;8.062;2022-10-13T13:47:21;18.30;99.90
8711;DHT22;4392;47.400;8.062;2022-10-13T13:49:48;18.00;99.90
8711;DHT22;4392;47.400;8.062;2022-10-13T13:52:20;18.10;99.90
8711;DHT22;4392;47.400;8.062;2022-10-13T13:54:47;18.10;99.90
8711;DHT22;4392;47.400;8.062;2022-10-13T13:57:14;18.00;99.90
8711;DHT22;4392;47.400;8.062;2022-10-13T13:59:40;18.00;99.90
8711;DHT22;4392;47.400;8.062;2022-10-13T14:02:18;18.00;99.90
8711;DHT22;4392;47.400;8.062;2022-10-13T14:04:44;18.00;99.90
8711;DHT22;4392;47.400;8.062;2022-10-13T14:07:10;18.00;99.90
8711;DHT22;4392;47.400;8.062;2022-10-13T14:09:36;17.90;99.90
8711;DHT22;4392;47.400;8.062;2022-10-13T14:12:02;17.90;99.90
8711;DHT22;4392;47.400;8.062;2022-10-13T14:14:32;17.90;99.90
8711;DHT22;4392;47.400;8.062;2022-10-13T14:16:58;17.90;99.90
8711;DHT22;4392;47.400;8.062;2022-10-13T14:19:24;18.00;99.90
8711;DHT22;4392;47.400;8.062;2022-10-13T14:21:50;18.10;99.90
8711;DHT22;4392;47.400;8.062;2022-10-13T14:24:16;18.20;99.90
8711;DHT22;4392;47.400;8.062;2022-10-13T14:26:42;18.30;99.90
8711;DHT22;4392;47.400;8.062;2022-10-13T14:29:08;18.40;99.90
8711;DHT22;4392;47.400;8.062;2022-10-13T14:31:34;18.30;99.90
8711;DHT22;4392;47.400;8.062;2022-10-13T14:34:00;18.30;99.90
8711;DHT22;4392;47.400;8.062;2022-10-13T14:36:25;18.30;99.90
8711;DHT22;4392;47.400;8.062;2022-10-13T14:38:53;18.40;99.90
8711;DHT22;4392;47.400;8.062;2022-10-13T14:41:19;18.50;99.90
8711;DHT22;4392;47.400;8.062;2022-10-13T14:43:45;18.40;99.90
8711;DHT22;4392;47.400;8.062;2022-10-13T14:46:13;18.20;99.90
8711;DHT22;4392;47.400;8.062;2022-10-13T14:48:39;18.20;99.90
8711;DHT22;4392;47.400;8.062;2022-10-13T14:51:06;18.20;99.90
8711;DHT22;4392;47.400;8.062;2022-10-13T14:53:43;18.10;99.90
8711;DHT22;4392;47.400;8.062;2022-10-13T14:56:19;18.10;99.90
8711;DHT22;4392;47.400;8.062;2022-10-13T14:58:46;18.00;99.90
8711;DHT22;4392;47.400;8.062;2022-10-13T15:01:13;18.00;99.90
8711;DHT22;4392;47.400;8.062;2022-10-13T15:03:39;18.00;99.90
8711;DHT22;4392;47.400;8.062;2022-10-13T15:06:05;17.90;99.90
8711;DHT22;4392;47.400;8.062;2022-10-13T15:08:31;18.00;99.90
8711;DHT22;4392;47.400;8.062;2022-10-13T15:11:01;18.00;99.90
8711;DHT22;4392;47.400;8.062;2022-10-13T15:13:28;18.00;99.90
8711;DHT22;4392;47.400;8.062;2022-10-13T15:15:55;18.00;99.90
8711;DHT22;4392;47.400;8.062;2022-10-13T15:18:22;17.90;99.90
8711;DHT22;4392;47.400;8.062;2022-10-13T15:20:48;18.00;99.90
8711;DHT22;4392;47.400;8.062;2022-10-13T15:23:16;17.90;99.90
8711;DHT22;4392;47.400;8.062;2022-10-13T15:25:53;17.80;99.90
8711;DHT22;4392;47.400;8.062;2022-10-13T15:28:22;17.80;99.90
8711;DHT22;4392;47.400;8.062;2022-10-13T15:30:48;17.80;99.90
8711;DHT22;4392;47.400;8.062;2022-10-13T15:33:14;17.80;99.90
8711;DHT22;4392;47.400;8.062;2022-10-13T15:35:40;17.80;99.90
8711;DHT22;4392;47.400;8.062;2022-10-13T15:38:07;17.80;99.90
8711;DHT22;4392;47.400;8.062;2022-10-13T15:40:35;17.80;99.90
8711;DHT22;4392;47.400;8.062;2022-10-13T15:43:03;17.80;99.90
8711;DHT22;4392;47.400;8.062;2022-10-13T15:45:29;17.80;99.90
8711;DHT22;4392;47.400;8.062;2022-10-13T15:47:55;17.80;99.90
8711;DHT22;4392;47.400;8.062;2022-10-13T15:50:32;17.70;99.90
8711;DHT22;4392;47.400;8.062;2022-10-13T15:53:00;17.80;99.90
8711;DHT22;4392;47.400;8.062;2022-10-13T15:55:25;17.70;99.90
8711;DHT22;4392;47.400;8.062;2022-10-13T15:57:53;17.80;99.90
8711;DHT22;4392;47.400;8.062;2022-10-13T16:00:18;17.80;99.90
8711;DHT22;4392;47.400;8.062;2022-10-13T16:02:48;17.70;99.90
8711;DHT22;4392;47.400;8.062;2022-10-13T16:05:14;17.50;99.90
8711;DHT22;4392;47.400;8.062;2022-10-13T16:07:41;17.40;99.90
8711;DHT22;4392;47.400;8.062;2022-10-13T16:10:08;17.40;99.90
8711;DHT22;4392;47.400;8.062;2022-10-13T16:12:35;17.50;99.90
8711;DHT22;4392;47.400;8.062;2022-10-13T16:15:01;17.50;99.90
8711;DHT22;4392;47.400;8.062;2022-10-13T16:17:29;17.60;99.90
8711;DHT22;4392;47.400;8.062;2022-10-13T16:19:59;17.40;99.90
8711;DHT22;4392;47.400;8.062;2022-10-13T16:22:27;17.40;99.90
8711;DHT22;4392;47.400;8.062;2022-10-13T16:24:53;17.40;99.90
8711;DHT22;4392;47.400;8.062;2022-10-13T16:27:18;17.30;99.90
8711;DHT22;4392;47.400;8.062;2022-10-13T16:29:44;17.10;99.90
8711;DHT22;4392;47.400;8.062;2022-10-13T16:32:10;17.20;99.90
8711;DHT22;4392;47.400;8.062;2022-10-13T16:34:36;17.20;99.90
8711;DHT22;4392;47.400;8.062;2022-10-13T16:37:02;17.20;99.90
8711;DHT22;4392;47.400;8.062;2022-10-13T16:39:28;17.10;99.90
8711;DHT22;4392;47.400;8.062;2022-10-13T16:41:54;17.20;99.90
8711;DHT22;4392;47.400;8.062;2022-10-13T16:44:20;17.10;99.90
8711;DHT22;4392;47.400;8.062;2022-10-13T16:46:45;17.10;99.90
8711;DHT22;4392;47.400;8.062;2022-10-13T16:49:17;17.10;99.90
8711;DHT22;4392;47.400;8.062;2022-10-13T16:51:43;17.10;99.90
8711;DHT22;4392;47.400;8.062;2022-10-13T16:54:09;17.00;99.90
8711;DHT22;4392;47.400;8.062;2022-10-13T16:56:34;17.10;99.90
8711;DHT22;4392;47.400;8.062;2022-10-13T16:59:02;17.00;99.90
8711;DHT22;4392;47.400;8.062;2022-10-13T17:01:29;17.00;99.90
8711;DHT22;4392;47.400;8.062;2022-10-13T17:03:55;17.00;99.90
8711;DHT22;4392;47.400;8.062;2022-10-13T17:06:23;17.00;99.90
8711;DHT22;4392;47.400;8.062;2022-10-13T17:08:52;16.90;99.90
8711;DHT22;4392;47.400;8.062;2022-10-13T17:11:20;16.90;99.90
8711;DHT22;4392;47.400;8.062;2022-10-13T17:13:47;16.90;99.90
8711;DHT22;4392;47.400;8.062;2022-10-13T17:16:13;16.90;99.90
8711;DHT22;4392;47.400;8.062;2022-10-13T17:18:39;16.90;99.90
8711;DHT22;4392;47.400;8.062;2022-10-13T17:21:06;16.90;99.90
8711;DHT22;4392;47.400;8.062;2022-10-13T17:23:38;17.10;99.90
8711;DHT22;4392;47.400;8.062;2022-10-13T17:26:12;17.20;99.90
8711;DHT22;4392;47.400;8.062;2022-10-13T17:28:38;17.10;99.90
8711;DHT22;4392;47.400;8.062;2022-10-13T17:31:07;17.00;99.90
8711;DHT22;4392;47.400;8.062;2022-10-13T17:33:46;16.90;99.90
8711;DHT22;4392;47.400;8.062;2022-10-13T17:36:21;16.90;99.90
8711;DHT22;4392;47.400;8.062;2022-10-13T17:38:49;16.90;99.90
8711;DHT22;4392;47.400;8.062;2022-10-13T17:41:18;16.80;99.90
8711;DHT22;4392;47.400;8.062;2022-10-13T17:43:44;16.80;99.90
8711;DHT22;4392;47.400;8.062;2022-10-13T17:48:46;16.80;99.90
8711;DHT22;4392;47.400;8.062;2022-10-13T17:51:14;16.90;99.90
8711;DHT22;4392;47.400;8.062;2022-10-13T17:53:41;16.80;99.90
8711;DHT22;4392;47.400;8.062;2022-10-13T17:56:14;16.70;99.90
8711;DHT22;4392;47.400;8.062;2022-10-13T17:58:41;16.70;99.90
8711;DHT22;4392;47.400;8.062;2022-10-13T18:01:13;16.70;99.90
8711;DHT22;4392;47.400;8.062;2022-10-13T18:03:47;16.70;99.90
8711;DHT22;4392;47.400;8.062;2022-10-13T18:06:13;16.70;99.90
8711;DHT22;4392;47.400;8.062;2022-10-13T18:08:39;16.70;99.90
8711;DHT22;4392;47.400;8.062;2022-10-13T18:11:10;16.70;99.90
8711;DHT22;4392;47.400;8.062;2022-10-13T18:13:36;16.70;99.90
8711;DHT22;4392;47.400;8.062;2022-10-13T18:16:07;16.70;99.90
8711;DHT22;4392;47.400;8.062;2022-10-13T18:18:33;17.20;99.90